Time;durP1;ratioP1;P1;durP2;ratioP2;P2;SDS_P1;SDS_P2;PMS_P1;PMS_P2;Temp;Humidity;BMP_temperature;BMP_pressure;BME280_temperature;BME280_humidity;BME280_pressure;Samples;Min_cycle;Max_cycle;Signal;HPM_P1;HPM_P2
2022/09/27 00:01:56;;;;;;;2.13;1.87;;;23.20;64.60;;;;;;5031964;28;20428;-74
2022/09/27 00:04:25;;;;;;;1.50;1.40;;;23.20;64.90;;;;;;5032532;28;20477;-73
2022/09/27 00:06:54;;;;;;;2.10;1.80;;;23.20;64.90;;;;;;5050168;28;20480;-75
2022/09/27 00:09:23;;;;;;;1.70;1.60;;;23.20;64.70;;;;;;5035169;28;20885;-77
2022/09/27 00:11:51;;;;;;;1.60;1.50;;;23.20;64.60;;;;;;5042803;28;20462;-73
2022/09/27 00:14:19;;;;;;;2.50;1.80;;;23.20;64.70;;;;;;5051420;28;20448;-73
2022/09/27 00:16:47;;;;;;;1.67;1.57;;;23.10;64.90;;;;;;5051823;28;20449;-74
2022/09/27 00:19:18;;;;;;;1.97;1.87;;;23.10;64.90;;;;;;5051387;28;20481;-73
2022/09/27 00:21:47;;;;;;;1.80;1.70;;;23.10;64.90;;;;;;5047021;28;20443;-76
2022/09/27 00:24:19;;;;;;;1.60;1.50;;;23.10;64.90;;;;;;5031998;28;20450;-74
2022/09/27 00:26:47;;;;;;;1.83;1.73;;;23.10;64.90;;;;;;5034680;28;20561;-75
2022/09/27 00:29:18;;;;;;;1.67;1.30;;;23.10;64.70;;;;;;5055195;28;20488;-73
2022/09/27 00:31:47;;;;;;;1.40;1.30;;;23.10;65.00;;;;;;5054086;28;20478;-74
2022/09/27 00:34:20;;;;;;;1.53;1.43;;;23.10;65.00;;;;;;5055009;28;20458;-74
2022/09/27 00:36:48;;;;;;;2.33;1.50;;;23.10;65.20;;;;;;5055488;28;20434;-74
2022/09/27 00:39:18;;;;;;;1.43;1.33;;;23.10;64.90;;;;;;5040048;28;20476;-76
2022/09/27 00:41:46;;;;;;;1.33;1.23;;;23.10;65.00;;;;;;5035938;28;20466;-73
2022/09/27 00:44:52;;;;;;;2.00;1.80;;;23.10;64.90;;;;;;5033679;28;20923;-74
2022/09/27 00:47:27;;;;;;;1.50;1.40;;;23.00;64.90;;;;;;5033973;28;20569;-74
2022/09/27 00:49:58;;;;;;;1.70;1.50;;;23.00;64.80;;;;;;5034804;28;20514;-74
2022/09/27 00:52:33;;;;;;;1.93;1.63;;;23.00;65.10;;;;;;5040279;28;21063;-74
2022/09/27 00:55:07;;;;;;;1.70;1.27;;;23.00;65.00;;;;;;5053653;28;20536;-74
2022/09/27 00:57:36;;;;;;;1.30;1.20;;;23.00;65.00;;;;;;5053377;28;20454;-74
2022/09/27 01:00:08;;;;;;;1.50;1.40;;;23.00;65.00;;;;;;5050590;28;20792;-74
2022/09/27 01:02:38;;;;;;;1.33;1.10;;;22.90;65.00;;;;;;5035536;28;20447;-74
2022/09/27 01:05:10;;;;;;;2.10;1.90;;;22.90;64.80;;;;;;5035575;28;20801;-75
2022/09/27 01:07:38;;;;;;;1.97;1.87;;;22.90;64.90;;;;;;5038720;28;20895;-75
2022/09/27 01:10:09;;;;;;;1.83;1.40;;;22.90;64.90;;;;;;5038765;28;20463;-74
2022/09/27 01:12:49;;;;;;;2.30;1.57;;;22.90;64.90;;;;;;5041850;28;20501;-74
2022/09/27 01:15:25;;;;;;;1.27;1.17;;;22.90;64.80;;;;;;5054664;28;20824;-74
2022/09/27 01:18:07;;;;;;;1.23;1.13;;;22.90;64.70;;;;;;5044635;28;20463;-75
2022/09/27 01:21:17;;;;;;;1.30;1.20;;;22.90;64.70;;;;;;5039835;28;20918;-74
2022/09/27 01:24:14;;;;;;;1.67;1.43;;;22.90;64.80;;;;;;5037119;28;20454;-72
2022/09/27 01:27:17;;;;;;;1.00;1.00;;;22.80;64.70;;;;;;5048241;28;20565;-73
2022/09/27 01:29:57;;;;;;;1.30;1.20;;;22.80;64.80;;;;;;5035039;28;20487;-77
2022/09/27 01:32:33;;;;;;;1.87;1.30;;;22.80;65.00;;;;;;5042799;28;20459;-73
2022/09/27 01:35:06;;;;;;;1.27;1.17;;;22.80;65.30;;;;;;5053228;28;20753;-72
2022/09/27 01:37:42;;;;;;;1.70;1.43;;;22.80;65.20;;;;;;5050508;28;20471;-74
2022/09/27 01:40:18;;;;;;;3.20;1.20;;;22.80;65.40;;;;;;5035519;28;20462;-74
2022/09/27 01:42:55;;;;;;;1.30;1.20;;;22.80;65.40;;;;;;5036767;28;20861;-73
2022/09/27 01:45:34;;;;;;;1.07;1.07;;;22.80;65.20;;;;;;5035703;28;20454;-72
2022/09/27 01:48:21;;;;;;;1.60;1.00;;;22.80;65.30;;;;;;5033298;28;20794;-72
2022/09/27 01:50:59;;;;;;;1.70;1.20;;;22.80;65.40;;;;;;5043467;28;20465;-72
2022/09/27 01:53:33;;;;;;;1.27;1.17;;;22.80;65.60;;;;;;5036849;28;21305;-75
2022/09/27 01:56:35;;;;;;;1.60;1.50;;;22.70;65.50;;;;;;5051404;28;20462;-74
2022/09/27 01:59:14;;;;;;;1.30;1.20;;;22.70;65.30;;;;;;5052563;28;20461;-73
2022/09/27 02:01:53;;;;;;;1.27;1.17;;;22.70;65.30;;;;;;5052430;28;20527;-73
2022/09/27 02:04:33;;;;;;;3.17;1.53;;;22.70;65.30;;;;;;5052849;28;20783;-72
2022/09/27 02:07:14;;;;;;;1.83;1.73;;;22.70;65.20;;;;;;5045482;28;20488;-73
2022/09/27 02:09:48;;;;;;;0.70;0.70;;;22.70;65.30;;;;;;5041772;28;20481;-72
2022/09/27 02:12:25;;;;;;;1.13;1.03;;;22.70;65.20;;;;;;5038145;28;20521;-72
2022/09/27 02:14:59;;;;;;;1.10;1.00;;;22.70;65.40;;;;;;5037727;28;20449;-72
2022/09/27 02:17:37;;;;;;;0.80;0.80;;;22.70;65.20;;;;;;5032185;28;20466;-73
2022/09/27 02:20:14;;;;;;;1.87;0.90;;;22.70;65.30;;;;;;5032618;28;20466;-72
2022/09/27 02:22:54;;;;;;;1.03;0.97;;;22.70;65.40;;;;;;5041212;28;20482;-74
2022/09/27 02:25:27;;;;;;;1.60;1.30;;;22.70;65.30;;;;;;5035172;28;20452;-72
2022/09/27 02:28:01;;;;;;;1.80;1.10;;;22.70;65.40;;;;;;5044410;28;20477;-72
2022/09/27 02:30:34;;;;;;;1.20;0.90;;;22.70;65.30;;;;;;5056327;28;20551;-75
2022/09/27 02:33:33;;;;;;;1.17;1.10;;;22.70;65.30;;;;;;5045771;28;20860;-72
2022/09/27 02:36:03;;;;;;;1.30;1.20;;;22.70;65.40;;;;;;5051736;28;20461;-72
2022/09/27 02:38:31;;;;;;;1.20;1.13;;;22.70;65.20;;;;;;5036649;28;21045;-76
2022/09/27 02:41:01;;;;;;;1.40;1.30;;;22.70;65.30;;;;;;5050826;28;20956;-72
2022/09/27 02:43:33;;;;;;;1.10;1.00;;;22.70;65.10;;;;;;5045436;28;20535;-72
2022/09/27 02:46:20;;;;;;;1.17;1.10;;;22.70;65.30;;;;;;5033113;28;20487;-75
2022/09/27 02:49:02;;;;;;;0.87;0.80;;;22.70;65.20;;;;;;5050723;28;20474;-72
2022/09/27 02:51:42;;;;;;;1.33;1.20;;;22.70;65.30;;;;;;5042730;28;20832;-74
2022/09/27 02:54:21;;;;;;;0.90;0.90;;;22.70;65.00;;;;;;5043144;28;20458;-72
2022/09/27 02:57:17;;;;;;;1.13;1.13;;;22.70;65.00;;;;;;5050193;28;20466;-74
2022/09/27 03:00:08;;;;;;;0.70;0.70;;;22.70;65.20;;;;;;5052559;28;20511;-76
2022/09/27 03:03:05;;;;;;;1.00;1.00;;;22.70;65.20;;;;;;5043590;28;20485;-72
2022/09/27 03:05:54;;;;;;;0.90;0.87;;;22.70;65.10;;;;;;5031396;28;20829;-72
2022/09/27 03:08:24;;;;;;;2.57;1.27;;;22.70;65.20;;;;;;5034600;28;20475;-72
2022/09/27 03:10:53;;;;;;;0.73;0.60;;;22.70;65.20;;;;;;5030677;28;20949;-72
2022/09/27 03:13:21;;;;;;;1.60;1.50;;;22.70;65.20;;;;;;5047187;28;20458;-73
2022/09/27 03:15:50;;;;;;;2.00;0.80;;;22.70;65.20;;;;;;5049890;28;20462;-72
2022/09/27 03:18:18;;;;;;;1.10;0.80;;;22.70;65.10;;;;;;5032736;28;20431;-75
2022/09/27 03:21:13;;;;;;;0.80;0.80;;;22.70;65.20;;;;;;5051231;28;20467;-71
2022/09/27 03:23:45;;;;;;;1.03;1.03;;;22.70;65.20;;;;;;5045846;28;20464;-72
2022/09/27 03:26:13;;;;;;;1.03;1.03;;;22.70;65.10;;;;;;5039287;28;20477;-72
2022/09/27 03:28:43;;;;;;;1.90;1.13;;;22.70;65.20;;;;;;5030953;28;20495;-72
2022/09/27 03:31:11;;;;;;;1.40;1.30;;;22.70;65.10;;;;;;5041081;28;20517;-72
2022/09/27 03:33:55;;;;;;;0.93;0.93;;;22.70;65.10;;;;;;5046363;28;20882;-74
2022/09/27 03:36:23;;;;;;;0.90;0.90;;;22.70;65.20;;;;;;5053144;28;20453;-76
2022/09/27 03:38:53;;;;;;;1.30;1.20;;;22.70;65.20;;;;;;5046176;28;20556;-72
2022/09/27 03:41:21;;;;;;;1.03;1.00;;;22.70;65.10;;;;;;5049283;28;20458;-72
2022/09/27 03:43:50;;;;;;;1.00;1.00;;;22.70;65.10;;;;;;5033429;28;20466;-72
2022/09/27 03:46:18;;;;;;;0.90;0.90;;;22.70;65.10;;;;;;5031084;28;20530;-72
2022/09/27 03:48:46;;;;;;;1.20;1.10;;;22.70;65.10;;;;;;5040861;28;20524;-72
2022/09/27 03:51:15;;;;;;;1.00;0.97;;;22.70;65.10;;;;;;5043857;28;20472;-73
2022/09/27 03:53:44;;;;;;;0.97;0.97;;;22.70;65.10;;;;;;5035344;28;20463;-72
2022/09/27 03:56:14;;;;;;;1.17;0.90;;;22.70;65.10;;;;;;5031690;28;20443;-72
2022/09/27 03:58:42;;;;;;;0.90;0.90;;;22.70;65.10;;;;;;5035975;28;20458;-72
2022/09/27 04:01:11;;;;;;;0.90;0.87;;;22.70;65.20;;;;;;5044202;28;20788;-73
2022/09/27 04:03:40;;;;;;;0.93;0.93;;;22.70;65.10;;;;;;5034606;28;20463;-73
2022/09/27 04:06:25;;;;;;;1.33;1.23;;;22.70;65.10;;;;;;5035580;28;20513;-72
2022/09/27 04:08:54;;;;;;;1.33;1.13;;;22.70;65.10;;;;;;5046614;28;20503;-72
2022/09/27 04:11:27;;;;;;;0.77;0.77;;;22.70;65.10;;;;;;5044649;28;20548;-72
2022/09/27 04:13:56;;;;;;;1.73;1.00;;;22.70;65.00;;;;;;5034911;28;20841;-74
2022/09/27 04:16:26;;;;;;;1.90;1.00;;;22.70;65.10;;;;;;5041809;28;20485;-73
2022/09/27 04:19:24;;;;;;;1.07;0.93;;;22.70;65.10;;;;;;5041857;28;20463;-73
2022/09/27 04:22:06;;;;;;;2.70;1.30;;;22.70;65.20;;;;;;5041001;28;20452;-72
2022/09/27 04:24:35;;;;;;;1.57;1.13;;;22.70;65.10;;;;;;5048644;28;20469;-74
2022/09/27 04:27:23;;;;;;;0.80;0.80;;;22.70;65.10;;;;;;5040687;28;20987;-71
2022/09/27 04:29:51;;;;;;;2.80;0.90;;;22.70;65.20;;;;;;5047422;28;20926;-72
2022/09/27 04:32:41;;;;;;;1.97;0.90;;;22.70;65.20;;;;;;5053488;28;20448;-72
2022/09/27 04:38:38;;;;;;;1.27;1.17;;;22.70;65.30;;;;;;5030618;28;20485;-72
2022/09/27 04:41:08;;;;;;;1.53;1.10;;;22.70;65.30;;;;;;5033102;28;20838;-73
2022/09/27 04:43:41;;;;;;;0.90;0.90;;;22.70;65.50;;;;;;5033757;28;20465;-72
2022/09/27 04:46:09;;;;;;;1.37;1.00;;;22.70;65.60;;;;;;5038883;28;20490;-72
2022/09/27 04:48:37;;;;;;;1.27;0.70;;;22.70;65.60;;;;;;5034853;28;20474;-72
2022/09/27 04:51:06;;;;;;;2.17;0.90;;;22.70;65.70;;;;;;5041283;28;20527;-75
2022/09/27 04:53:35;;;;;;;1.43;0.90;;;22.70;65.90;;;;;;5047961;28;20549;-73
2022/09/27 04:56:05;;;;;;;1.70;1.30;;;22.70;65.90;;;;;;5043332;28;20487;-72
2022/09/27 04:58:35;;;;;;;1.30;1.20;;;22.70;65.90;;;;;;5048742;28;20927;-71
2022/09/27 05:01:06;;;;;;;1.50;1.40;;;22.70;66.00;;;;;;5041401;28;20445;-71
2022/09/27 05:04:00;;;;;;;0.90;0.73;;;22.70;66.00;;;;;;5046885;28;20932;-71
2022/09/27 05:06:29;;;;;;;1.13;0.90;;;22.70;66.10;;;;;;5037919;28;22080;-72
2022/09/27 05:09:05;;;;;;;0.70;0.70;;;22.70;66.10;;;;;;5047994;28;20799;-71
2022/09/27 05:11:46;;;;;;;1.50;1.10;;;22.70;66.20;;;;;;5042112;28;20458;-71
2022/09/27 05:14:47;;;;;;;1.50;0.90;;;22.70;66.20;;;;;;5041385;28;20521;-72
2022/09/27 05:17:17;;;;;;;4.43;1.27;;;22.70;66.10;;;;;;5046802;28;20461;-73
2022/09/27 05:20:10;;;;;;;3.03;1.30;;;22.70;66.50;;;;;;5050647;28;21154;-74
2022/09/27 05:22:49;;;;;;;2.53;1.10;;;22.70;66.60;;;;;;5048447;28;20469;-72
2022/09/27 05:25:18;;;;;;;0.87;0.87;;;22.70;66.50;;;;;;5044289;28;20447;-72
2022/09/27 05:27:47;;;;;;;5.10;1.10;;;22.70;66.40;;;;;;5039547;28;20564;-71
2022/09/27 05:30:15;;;;;;;1.63;1.20;;;22.70;66.50;;;;;;5044504;28;20988;-70
2022/09/27 05:32:49;;;;;;;1.23;0.97;;;22.70;66.30;;;;;;5041439;28;20488;-70
2022/09/27 05:35:39;;;;;;;2.60;1.13;;;22.70;66.30;;;;;;5046699;28;20458;-70
2022/09/27 05:38:12;;;;;;;2.63;0.93;;;22.70;66.50;;;;;;5040856;28;20462;-70
2022/09/27 05:40:46;;;;;;;1.53;1.30;;;22.70;66.40;;;;;;5042335;28;20847;-69
2022/09/27 05:43:15;;;;;;;1.33;1.17;;;22.70;66.40;;;;;;5047279;28;21021;-69
2022/09/27 05:45:44;;;;;;;1.90;1.00;;;22.70;66.20;;;;;;5040094;28;20466;-75
2022/09/27 05:48:15;;;;;;;2.10;1.17;;;22.70;66.40;;;;;;5048893;28;20553;-69
2022/09/27 05:50:50;;;;;;;7.23;0.90;;;22.70;66.40;;;;;;5042103;28;20781;-70
2022/09/27 05:53:18;;;;;;;1.73;1.33;;;22.70;66.40;;;;;;5040150;28;20823;-70
2022/09/27 05:55:48;;;;;;;1.83;1.63;;;22.70;66.40;;;;;;5042087;28;20469;-70
2022/09/27 05:58:19;;;;;;;2.30;1.00;;;22.70;66.40;;;;;;5043211;28;20515;-71
2022/09/27 06:00:53;;;;;;;2.23;1.00;;;22.70;66.30;;;;;;5043986;28;20956;-71
2022/09/27 06:03:42;;;;;;;2.37;1.20;;;22.70;66.20;;;;;;5045895;28;20533;-70
2022/09/27 06:06:16;;;;;;;1.20;1.10;;;22.70;66.30;;;;;;5039483;28;20486;-70
2022/09/27 06:08:49;;;;;;;1.63;0.80;;;22.70;66.20;;;;;;5047344;28;20548;-71
2022/09/27 06:11:19;;;;;;;3.00;1.20;;;22.60;65.90;;;;;;5043447;28;20460;-69
2022/09/27 06:13:50;;;;;;;1.37;1.23;;;22.70;66.10;;;;;;5041170;28;20540;-69
2022/09/27 06:16:21;;;;;;;1.27;0.97;;;22.70;66.20;;;;;;5039062;28;20556;-69
2022/09/27 06:18:51;;;;;;;1.53;1.43;;;22.70;66.20;;;;;;5039733;28;20455;-69
2022/09/27 06:21:20;;;;;;;1.07;0.97;;;22.70;66.00;;;;;;5039566;28;20465;-69
2022/09/27 06:23:55;;;;;;;1.40;1.20;;;22.70;66.10;;;;;;5041271;28;20785;-70
2022/09/27 06:26:30;;;;;;;1.50;1.27;;;22.70;66.10;;;;;;5041660;28;20493;-71
2022/09/27 06:29:17;;;;;;;0.97;0.83;;;22.70;66.00;;;;;;5039226;28;20498;-75
2022/09/27 06:31:52;;;;;;;1.43;1.03;;;22.60;65.90;;;;;;5056757;28;20517;-72
2022/09/27 06:34:28;;;;;;;1.43;1.03;;;22.60;66.00;;;;;;5044510;28;20819;-69
2022/09/27 06:36:57;;;;;;;3.33;1.30;;;22.60;65.70;;;;;;5038051;28;20475;-72
2022/09/27 06:39:27;;;;;;;2.00;1.30;;;22.60;66.10;;;;;;5043470;28;20458;-72
2022/09/27 06:42:04;;;;;;;2.73;1.03;;;22.60;66.30;;;;;;5038601;28;20600;-68
2022/09/27 06:44:53;;;;;;;6.50;1.20;;;22.70;66.40;;;;;;5038475;28;20789;-69
2022/09/27 06:47:47;;;;;;;2.83;1.37;;;22.70;66.30;;;;;;5039037;28;20471;-69
2022/09/27 06:50:33;;;;;;;3.60;1.40;;;22.70;66.10;;;;;;5036928;28;20470;-68
2022/09/27 06:53:02;;;;;;;2.73;0.90;;;22.80;66.10;;;;;;5056065;28;20490;-68
2022/09/27 06:55:31;;;;;;;1.87;0.90;;;22.80;66.10;;;;;;5043430;28;20926;-69
2022/09/27 07:01:06;;;;;;;3.50;0.80;;;22.80;66.00;;;;;;5038456;28;20496;-70
2022/09/27 07:04:13;;;;;;;2.07;1.20;;;22.80;66.00;;;;;;5042850;28;20962;-69
2022/09/27 07:07:01;;;;;;;1.77;1.00;;;22.90;65.60;;;;;;5047404;28;20948;-69
2022/09/27 07:09:38;;;;;;;3.17;0.73;;;22.90;65.90;;;;;;5046263;28;20478;-70
2022/09/27 07:12:06;;;;;;;0.83;0.83;;;22.90;65.90;;;;;;5039165;28;20960;-70
2022/09/27 07:14:35;;;;;;;1.30;1.13;;;22.90;65.90;;;;;;5035552;28;20451;-70
2022/09/27 07:17:05;;;;;;;1.33;1.00;;;22.90;65.70;;;;;;5030196;28;20459;-72
2022/09/27 07:19:37;;;;;;;1.27;1.10;;;22.90;65.80;;;;;;5039206;28;20470;-70
2022/09/27 07:22:09;;;;;;;2.03;0.90;;;22.90;65.50;;;;;;5036178;28;20454;-70
2022/09/27 07:24:38;;;;;;;0.97;0.93;;;23.00;65.50;;;;;;5036241;28;20459;-69
2022/09/27 07:27:06;;;;;;;1.93;1.10;;;23.00;65.60;;;;;;5044087;28;20498;-69
2022/09/27 07:29:35;;;;;;;0.73;0.73;;;23.00;65.50;;;;;;5046726;28;20523;-70
2022/09/27 07:32:03;;;;;;;1.57;1.00;;;23.00;65.60;;;;;;5042849;28;20558;-68
2022/09/27 07:34:34;;;;;;;2.30;1.20;;;23.00;65.60;;;;;;5040540;28;20513;-69
2022/09/27 07:37:04;;;;;;;1.77;0.60;;;23.10;65.50;;;;;;5046790;28;20474;-71
2022/09/27 07:39:37;;;;;;;0.80;0.63;;;23.10;65.40;;;;;;5047465;28;20514;-70
2022/09/27 07:42:06;;;;;;;1.87;1.07;;;23.10;65.30;;;;;;5044601;28;20458;-69
2022/09/27 07:44:38;;;;;;;0.60;0.60;;;23.10;65.30;;;;;;5042259;28;20937;-69
2022/09/27 07:47:29;;;;;;;2.00;1.07;;;23.10;65.20;;;;;;5044521;28;20454;-69
2022/09/27 07:50:17;;;;;;;1.10;0.80;;;23.20;65.20;;;;;;5041297;28;20482;-69
2022/09/27 07:52:53;;;;;;;1.60;1.00;;;23.20;65.20;;;;;;5043572;28;20451;-71
2022/09/27 07:55:44;;;;;;;0.70;0.70;;;23.20;65.20;;;;;;5041789;28;20450;-69
2022/09/27 07:58:17;;;;;;;0.90;0.77;;;23.20;65.00;;;;;;5048729;28;20519;-71
2022/09/27 08:00:45;;;;;;;1.23;1.10;;;23.30;64.90;;;;;;5042114;28;20538;-69
2022/09/27 08:03:17;;;;;;;0.87;0.80;;;23.30;64.90;;;;;;5039648;28;20452;-69
2022/09/27 08:05:47;;;;;;;2.03;1.27;;;23.30;64.70;;;;;;5030500;28;20481;-69
2022/09/27 08:08:16;;;;;;;1.43;1.00;;;23.30;64.70;;;;;;5040466;28;20516;-69
2022/09/27 08:10:48;;;;;;;0.97;0.63;;;23.30;64.70;;;;;;5047262;28;20463;-69
2022/09/27 08:13:18;;;;;;;0.93;0.90;;;23.30;64.40;;;;;;5036634;28;20491;-71
2022/09/27 08:15:51;;;;;;;2.10;0.73;;;23.30;64.30;;;;;;5034987;28;20471;-70
2022/09/27 08:18:20;;;;;;;1.20;1.10;;;23.30;64.40;;;;;;5046262;28;20454;-69
2022/09/27 08:20:57;;;;;;;1.73;1.13;;;23.30;64.50;;;;;;5033341;28;20444;-70
2022/09/27 08:23:39;;;;;;;1.27;1.17;;;23.40;64.50;;;;;;5040843;28;20458;-70
2022/09/27 08:26:29;;;;;;;1.40;0.80;;;23.40;64.50;;;;;;5034347;28;20482;-71
2022/09/27 08:29:05;;;;;;;1.10;0.70;;;23.30;64.40;;;;;;5045350;28;20490;-70
2022/09/27 08:31:39;;;;;;;1.03;0.90;;;23.30;64.30;;;;;;5045195;28;20475;-70
2022/09/27 08:34:07;;;;;;;0.87;0.87;;;23.30;64.50;;;;;;5043772;28;20931;-69
2022/09/27 08:36:36;;;;;;;0.53;0.50;;;23.30;64.40;;;;;;5032668;28;20456;-69
2022/09/27 08:39:05;;;;;;;0.77;0.73;;;23.40;64.50;;;;;;5029725;28;20446;-69
2022/09/27 08:41:49;;;;;;;0.70;0.70;;;23.40;64.50;;;;;;5038546;28;20467;-69
2022/09/27 08:44:27;;;;;;;1.20;0.80;;;23.40;64.50;;;;;;5058958;28;21014;-69
2022/09/27 08:47:12;;;;;;;1.20;1.00;;;23.40;64.50;;;;;;5043114;28;20458;-72
2022/09/27 08:49:44;;;;;;;1.27;1.07;;;23.40;64.50;;;;;;5044156;28;20579;-70
2022/09/27 08:52:17;;;;;;;0.80;0.70;;;23.40;64.10;;;;;;5041525;28;20475;-68
2022/09/27 08:54:48;;;;;;;1.20;0.83;;;23.40;64.40;;;;;;5041379;28;20789;-68
2022/09/27 08:57:18;;;;;;;0.90;0.90;;;23.40;64.30;;;;;;5037532;28;20513;-69
2022/09/27 09:00:00;;;;;;;1.90;0.90;;;23.40;64.30;;;;;;5047674;28;20462;-70
2022/09/27 09:02:29;;;;;;;3.77;2.70;;;23.50;64.30;;;;;;5036321;28;20933;-70
2022/09/27 09:05:02;;;;;;;1.00;0.73;;;23.50;64.30;;;;;;5048733;28;20455;-71
2022/09/27 09:07:55;;;;;;;2.20;1.20;;;23.50;64.30;;;;;;5048809;28;20520;-70
2022/09/27 09:13:52;;;;;;;0.77;0.77;;;23.40;64.20;;;;;;5045349;28;20971;-70
2022/09/27 09:16:32;;;;;;;1.20;0.93;;;23.50;64.30;;;;;;5041216;28;20876;-69
2022/09/27 09:19:26;;;;;;;3.00;1.17;;;23.50;64.20;;;;;;5048062;28;20486;-69
2022/09/27 09:22:20;;;;;;;1.23;0.70;;;23.50;64.00;;;;;;5046778;28;20469;-74
2022/09/27 09:25:01;;;;;;;0.70;0.57;;;23.50;64.00;;;;;;5042908;28;20934;-77
2022/09/27 09:27:36;;;;;;;0.80;0.63;;;23.50;64.10;;;;;;5049529;28;20945;-77
2022/09/27 09:30:22;;;;;;;0.83;0.80;;;23.50;64.10;;;;;;5049721;28;20500;-75
2022/09/27 09:33:15;;;;;;;0.80;0.67;;;23.60;64.30;;;;;;5034184;28;20495;-78
2022/09/27 09:35:49;;;;;;;0.57;0.53;;;23.60;64.20;;;;;;5040306;28;20538;-79
2022/09/27 09:38:22;;;;;;;0.70;0.70;;;23.70;64.00;;;;;;5048226;28;20446;-78
2022/09/27 09:40:57;;;;;;;0.80;0.80;;;23.70;64.10;;;;;;5036525;28;20474;-79
2022/09/27 09:43:31;;;;;;;0.73;0.60;;;23.70;63.80;;;;;;5038535;28;20454;-79
2022/09/27 09:46:07;;;;;;;1.97;0.90;;;23.70;64.00;;;;;;5046194;28;20478;-72
2022/09/27 09:48:43;;;;;;;0.80;0.70;;;23.70;63.80;;;;;;5038488;28;20455;-69
2022/09/27 09:51:19;;;;;;;0.93;0.50;;;23.70;64.20;;;;;;5038801;28;20471;-68
2022/09/27 09:53:54;;;;;;;0.63;0.60;;;23.70;64.20;;;;;;5046708;28;20461;-74
2022/09/27 09:56:31;;;;;;;1.33;0.60;;;23.70;63.80;;;;;;5042282;28;20578;-71
2022/09/27 09:59:02;;;;;;;0.90;0.90;;;23.80;63.90;;;;;;5045440;28;20443;-69
2022/09/27 10:01:41;;;;;;;0.50;0.50;;;23.80;63.60;;;;;;5040868;28;20529;-68
2022/09/27 10:04:15;;;;;;;1.17;0.60;;;23.80;63.40;;;;;;5045826;28;20460;-68
2022/09/27 10:06:44;;;;;;;1.43;1.00;;;23.80;63.70;;;;;;5041900;28;20520;-69
2022/09/27 10:09:15;;;;;;;0.70;0.60;;;23.90;63.40;;;;;;5043305;28;20470;-70
2022/09/27 10:11:52;;;;;;;0.57;0.50;;;23.90;63.30;;;;;;5037675;28;20478;-75
2022/09/27 10:14:29;;;;;;;0.70;0.50;;;23.90;63.20;;;;;;5034706;28;20479;-71
2022/09/27 10:17:10;;;;;;;0.83;0.53;;;23.90;63.20;;;;;;5039908;28;20463;-68
2022/09/27 10:19:39;;;;;;;3.13;0.70;;;23.90;63.20;;;;;;5035087;28;20476;-73
2022/09/27 10:22:17;;;;;;;0.60;0.60;;;23.90;63.40;;;;;;5042337;28;20499;-69
2022/09/27 10:24:58;;;;;;;0.70;0.60;;;23.90;63.20;;;;;;5037847;28;20812;-69
2022/09/27 10:27:47;;;;;;;0.70;0.70;;;23.80;63.20;;;;;;5037991;28;20455;-78
2022/09/27 10:30:27;;;;;;;0.70;0.70;;;23.80;63.50;;;;;;5041066;28;20474;-79
2022/09/27 10:33:00;;;;;;;0.70;0.67;;;23.80;63.50;;;;;;5041582;28;20478;-79
2022/09/27 10:35:42;;;;;;;1.00;0.40;;;23.80;63.50;;;;;;5039576;28;20490;-79
2022/09/27 10:38:24;;;;;;;0.93;0.80;;;23.70;63.50;;;;;;5043512;28;20459;-79
2022/09/27 10:41:02;;;;;;;1.10;1.00;;;23.70;63.50;;;;;;5040005;28;20451;-79
2022/09/27 10:43:33;;;;;;;0.60;0.60;;;23.70;63.50;;;;;;5035944;28;20459;-77
2022/09/27 10:46:31;;;;;;;0.83;0.77;;;23.70;63.50;;;;;;5035383;28;20988;-78
2022/09/27 10:49:27;;;;;;;1.57;0.60;;;23.70;63.50;;;;;;5046933;28;20462;-79
2022/09/27 10:52:00;;;;;;;1.10;0.70;;;23.70;63.30;;;;;;5043378;28;20474;-79
2022/09/27 10:54:30;;;;;;;0.87;0.43;;;23.70;63.30;;;;;;5043304;28;20467;-81
2022/09/27 10:57:03;;;;;;;0.80;0.80;;;23.90;63.00;;;;;;5041861;28;20456;-79
2022/09/27 10:59:35;;;;;;;1.13;0.80;;;24.10;62.40;;;;;;5043715;28;20930;-78
2022/09/27 11:02:04;;;;;;;0.97;0.60;;;24.20;62.10;;;;;;5037389;28;20456;-78
2022/09/27 11:05:03;;;;;;;0.50;0.43;;;24.50;61.70;;;;;;5046187;28;20456;-79
2022/09/27 11:07:36;;;;;;;1.27;0.60;;;24.70;60.80;;;;;;5042016;28;20464;-79
2022/09/27 11:10:27;;;;;;;1.20;0.60;;;24.80;60.60;;;;;;5040029;28;20462;-79
2022/09/27 11:13:13;;;;;;;1.33;0.70;;;24.80;60.50;;;;;;5045743;28;21041;-77
2022/09/27 11:16:02;;;;;;;0.70;0.60;;;24.90;60.50;;;;;;5038492;28;20467;-77
2022/09/27 11:18:40;;;;;;;1.43;0.60;;;25.00;60.10;;;;;;5060547;28;20459;-79
2022/09/27 11:21:17;;;;;;;0.60;0.60;;;25.10;60.10;;;;;;5035765;28;20835;-79
2022/09/27 11:24:03;;;;;;;1.00;0.77;;;25.20;59.90;;;;;;5044894;28;20559;-81
2022/09/27 11:26:43;;;;;;;0.50;0.50;;;25.30;59.80;;;;;;5036556;28;20443;-76
2022/09/27 11:29:21;;;;;;;1.80;0.57;;;25.30;59.80;;;;;;5034340;28;20249;-70
2022/09/27 11:32:24;;;;;;;0.50;0.47;;;25.50;59.40;;;;;;5041217;28;20477;-71
2022/09/27 11:35:14;;;;;;;1.13;0.90;;;25.80;59.00;;;;;;5038284;28;20467;-72
2022/09/27 11:37:52;;;;;;;0.60;0.60;;;26.20;58.40;;;;;;5046900;28;20439;-70
2022/09/27 11:40:31;;;;;;;1.03;0.53;;;26.50;57.70;;;;;;5044197;28;20497;-71
2022/09/27 11:43:18;;;;;;;0.57;0.57;;;26.70;57.10;;;;;;5059361;28;20471;-71
2022/09/27 11:45:55;;;;;;;1.50;0.50;;;26.80;56.50;;;;;;5034760;28;20454;-79
2022/09/27 11:49:06;;;;;;;0.60;0.50;;;26.60;56.90;;;;;;5044214;28;20464;-80
2022/09/27 11:51:56;;;;;;;1.33;0.53;;;26.20;57.80;;;;;;5051113;28;20465;-79
2022/09/27 11:54:43;;;;;;;0.80;0.40;;;25.90;58.70;;;;;;5035907;28;20463;-79
2022/09/27 11:57:22;;;;;;;0.90;0.70;;;25.90;58.80;;;;;;5047617;28;20465;-79
2022/09/27 12:00:09;;;;;;;0.53;0.53;;;25.90;59.10;;;;;;5035802;28;20466;-79
2022/09/27 12:03:13;;;;;;;1.80;0.60;;;26.10;59.30;;;;;;5043867;28;20561;-78
2022/09/27 12:05:56;;;;;;;0.50;0.50;;;26.40;58.90;;;;;;5045406;28;20883;-77
2022/09/27 12:08:43;;;;;;;0.73;0.60;;;26.60;58.50;;;;;;5043738;28;20464;-78
2022/09/27 12:11:20;;;;;;;0.70;0.47;;;26.60;58.40;;;;;;5039292;28;21102;-79
2022/09/27 12:13:54;;;;;;;0.50;0.50;;;26.40;58.50;;;;;;5058106;23;20831;-86
2022/09/27 12:16:23;;;;;;;0.40;0.40;;;26.30;58.90;;;;;;5014544;28;20478;-90
2022/09/27 12:18:54;;;;;;;1.43;0.50;;;26.10;59.10;;;;;;5000269;28;20446;-90
2022/09/27 12:21:54;;;;;;;1.47;0.47;;;26.00;59.40;;;;;;5014770;28;20461;-87
2022/09/27 12:24:25;;;;;;;1.17;0.80;;;25.90;59.80;;;;;;5034788;28;20504;-88
2022/09/27 12:27:11;;;;;;;0.53;0.40;;;25.80;60.00;;;;;;5017538;28;20486;-87
2022/09/27 12:29:44;;;;;;;0.53;0.53;;;25.70;60.40;;;;;;5018181;28;20526;-92
2022/09/27 12:32:18;;;;;;;0.80;0.60;;;25.50;60.60;;;;;;5023005;28;20934;-89
2022/09/27 12:34:51;;;;;;;0.87;0.60;;;25.40;61.00;;;;;;5017786;28;20453;-91
2022/09/27 12:37:24;;;;;;;1.07;0.53;;;25.30;61.10;;;;;;5018581;28;20476;-88
2022/09/27 12:39:56;;;;;;;0.80;0.60;;;25.30;60.90;;;;;;5016755;28;20468;-87
2022/09/27 12:42:36;;;;;;;1.50;0.57;;;25.40;61.00;;;;;;5016886;28;20547;-88
2022/09/27 12:45:13;;;;;;;0.87;0.33;;;25.50;61.00;;;;;;5033315;28;20468;-86
2022/09/27 12:48:02;;;;;;;0.50;0.40;;;25.70;60.60;;;;;;5033906;28;20932;-90
2022/09/27 12:50:36;;;;;;;0.70;0.50;;;26.00;60.20;;;;;;5002900;28;20460;-87
2022/09/27 12:53:12;;;;;;;0.50;0.40;;;26.20;59.80;;;;;;5023051;28;20963;-86
2022/09/27 12:56:10;;;;;;;1.20;0.60;;;26.20;59.80;;;;;;5019439;28;20936;-86
2022/09/27 12:59:15;;;;;;;0.63;0.60;;;26.10;59.90;;;;;;5023749;28;20448;-88
2022/09/27 13:02:25;;;;;;;0.80;0.70;;;26.00;60.10;;;;;;5026205;28;20504;-87
2022/09/27 13:05:16;;;;;;;0.50;0.50;;;26.00;60.30;;;;;;5003204;28;20487;-86
2022/09/27 13:08:14;;;;;;;2.57;0.60;;;25.90;60.20;;;;;;5024976;28;20534;-85
2022/09/27 13:10:56;;;;;;;2.33;0.50;;;25.70;60.10;;;;;;5019312;28;20420;-86
2022/09/27 13:13:30;;;;;;;5.43;0.60;;;25.60;60.60;;;;;;4995377;28;20819;-83
2022/09/27 13:16:07;;;;;;;1.90;0.97;;;25.50;60.60;;;;;;4996018;28;20451;-89
2022/09/27 13:18:58;;;;;;;0.40;0.40;;;25.40;60.80;;;;;;4994046;28;20492;-84
2022/09/27 13:21:56;;;;;;;3.27;0.70;;;25.30;60.90;;;;;;5012544;28;20860;-84
2022/09/27 13:24:49;;;;;;;0.53;0.50;;;25.20;60.70;;;;;;4996959;28;20904;-88
2022/09/27 13:27:41;;;;;;;2.13;0.87;;;25.10;60.90;;;;;;4997064;28;20419;-90
2022/09/27 13:30:46;;;;;;;0.70;0.47;;;25.10;61.10;;;;;;4996323;28;20469;-87
2022/09/27 13:33:44;;;;;;;1.83;0.90;;;25.00;61.10;;;;;;4995509;28;20863;-85
2022/09/27 13:36:40;;;;;;;3.17;0.60;;;25.00;61.00;;;;;;4996196;28;20550;-86
2022/09/27 13:39:22;;;;;;;2.80;0.90;;;25.00;60.90;;;;;;4996703;28;20499;-88
2022/09/27 13:42:28;;;;;;;1.87;0.67;;;24.90;61.40;;;;;;4998393;28;20450;-92
2022/09/27 13:45:16;;;;;;;1.73;0.77;;;24.90;61.30;;;;;;5047428;22;20553;-69
2022/09/27 13:47:49;;;;;;;1.90;0.60;;;24.80;61.50;;;;;;5032692;28;20971;-69
2022/09/27 13:50:45;;;;;;;1.00;0.60;;;24.80;61.40;;;;;;5031740;28;20998;-69
2022/09/27 13:53:25;;;;;;;1.60;0.93;;;24.70;61.30;;;;;;5027183;28;20993;-72